CJP2 weather

Kerrobert Airport
Kerrobert, Saskatchewan, Canada

Public forecast

Using degrees Celsius for public forecast. Weather courtesy of forecast.io.

METAR (pilot weather report)

Closest report is Kindersley Airport, 24.7 nm (45.7 km) S. Retrieved 2019/05/19 15:00 UTC (57 minutes ago):

CYKY 191500Z VRB06KT 15SM SKC 12/M06 A3017 RMK SLP231 DENSITY ALT 2300FT

TAF (pilot weather forecast)

Closest forecast is North Battleford Airport, 60.1 nm (111.3 km) NNE. Retrieved 2019/05/19 12:42 UTC (3 hours ago):

TAF CYQW 191138Z 1912/1924 11010KT P6SM SKC BECMG 1918/1920 10015KT RMK FCST BASED ON AUTO OBS. NXT FCST BY 191800Z